createdAt,value
2018-01-07T00:01:48.140Z,95238
2018-01-07T00:04:17.079Z,95241
2018-01-07T00:06:46.098Z,95237
2018-01-07T00:09:15.222Z,95241
2018-01-07T00:11:44.331Z,95239
2018-01-07T00:14:15.110Z,95242
2018-01-07T00:16:44.918Z,95259
2018-01-07T00:19:14.035Z,95245
2018-01-07T00:21:44.007Z,95251
2018-01-07T00:24:13.173Z,95255
2018-01-07T00:26:42.920Z,95254
2018-01-07T00:29:12.772Z,95260
2018-01-07T00:31:41.986Z,95287
2018-01-07T00:34:10.965Z,95286
2018-01-07T00:36:40.096Z,95262
2018-01-07T00:39:09.195Z,95270
2018-01-07T00:41:38.308Z,95275
2018-01-07T00:44:07.464Z,95281
2018-01-07T00:46:36.638Z,95286
2018-01-07T00:49:05.692Z,95281
2018-01-07T00:51:34.776Z,95286
2018-01-07T00:54:07.908Z,95285
2018-01-07T00:56:37.104Z,95287
2018-01-07T00:59:07.014Z,95307
2018-01-07T01:01:36.143Z,95292
2018-01-07T01:04:05.166Z,95307
2018-01-07T01:06:34.987Z,95296
2018-01-07T01:09:05.646Z,95302
2018-01-07T01:11:34.648Z,95296
2018-01-07T01:14:03.599Z,95306
2018-01-07T01:16:33.335Z,95308
2018-01-07T01:19:03.053Z,95322
2018-01-07T01:21:32.884Z,95315
2018-01-07T01:24:02.427Z,95323
2018-01-07T01:26:32.297Z,95330
2018-01-07T01:29:01.282Z,95334
2018-01-07T01:31:30.999Z,95333
2018-01-07T01:34:00.112Z,95333
2018-01-07T01:36:29.101Z,95344
2018-01-07T01:38:58.295Z,95343
2018-01-07T01:41:27.256Z,95339
2018-01-07T01:43:56.228Z,95343
2018-01-07T01:46:26.830Z,95346
2018-01-07T01:48:55.947Z,95340
2018-01-07T01:51:27.122Z,95342
2018-01-07T01:53:56.969Z,95344
2018-01-07T01:56:25.985Z,95349
2018-01-07T01:58:54.934Z,95344
2018-01-07T02:01:25.340Z,95345
2018-01-07T02:03:54.604Z,95354
2018-01-07T02:06:24.500Z,95349
2018-01-07T02:08:54.686Z,95388
2018-01-07T02:11:25.432Z,95354
2018-01-07T02:13:55.384Z,95365
2018-01-07T02:16:25.263Z,95357
2018-01-07T02:18:54.354Z,95360
2018-01-07T02:21:23.515Z,95359
2018-01-07T02:23:53.385Z,95363
2018-01-07T02:26:23.286Z,95369
2018-01-07T02:28:52.349Z,95365
2018-01-07T02:31:21.314Z,95366
2018-01-07T02:33:50.251Z,95362
2018-01-07T02:36:19.214Z,95366
2018-01-07T02:38:48.330Z,95374
2018-01-07T02:41:18.235Z,95378
2018-01-07T02:43:47.177Z,95375
2018-01-07T02:46:17.103Z,95373
2018-01-07T02:48:46.045Z,95385
2018-01-07T02:51:15.028Z,95384
2018-01-07T02:53:43.977Z,95383
2018-01-07T02:56:12.927Z,95378
2018-01-07T02:58:41.886Z,95378
2018-01-07T03:01:11.606Z,95384
2018-01-07T03:03:40.554Z,95375
2018-01-07T03:06:09.495Z,95380
2018-01-07T03:08:38.462Z,95377
2018-01-07T03:11:08.166Z,95378
2018-01-07T03:13:37.906Z,95378
2018-01-07T03:16:06.863Z,95389
2018-01-07T03:18:35.798Z,95386
2018-01-07T03:21:04.742Z,95380
2018-01-07T03:23:33.686Z,95384
2018-01-07T03:26:02.643Z,95376
2018-01-07T03:28:32.351Z,95379
2018-01-07T03:31:02.079Z,95390
2018-01-07T03:33:31.026Z,95381
2018-01-07T03:35:59.975Z,95391
2018-01-07T03:38:28.931Z,95397
2018-01-07T03:40:58.774Z,95323
2018-01-07T03:43:28.467Z,95408
2018-01-07T03:45:57.425Z,95404
2018-01-07T03:48:26.394Z,95420
2018-01-07T03:50:55.342Z,95420
2018-01-07T03:53:24.290Z,95426
2018-01-07T03:55:53.249Z,95444
2018-01-07T03:58:22.194Z,95419
2018-01-07T04:00:51.160Z,95429
2018-01-07T04:03:20.927Z,95419
2018-01-07T04:05:49.883Z,95424
2018-01-07T04:08:18.836Z,95422
2018-01-07T04:10:47.818Z,95422
2018-01-07T04:13:16.762Z,95421
2018-01-07T04:15:45.709Z,95421
2018-01-07T04:18:14.659Z,95427
2018-01-07T04:20:44.366Z,95430
2018-01-07T04:23:14.094Z,95438
2018-01-07T04:25:43.051Z,95439
2018-01-07T04:28:12.011Z,95458
2018-01-07T04:30:40.961Z,95463
2018-01-07T04:33:10.706Z,95458
2018-01-07T04:35:39.658Z,95454
2018-01-07T04:38:09.388Z,95460
2018-01-07T04:40:38.346Z,95458
2018-01-07T04:43:07.289Z,95464
2018-01-07T04:45:36.238Z,95466
2018-01-07T04:48:05.950Z,95468
2018-01-07T04:50:35.686Z,95467
2018-01-07T04:53:04.638Z,95474
2018-01-07T04:55:33.617Z,95478
2018-01-07T04:58:02.567Z,95473
2018-01-07T05:00:31.525Z,95472
2018-01-07T05:03:00.483Z,95488
2018-01-07T05:05:29.431Z,95478
2018-01-07T05:07:58.399Z,95481
2018-01-07T05:10:28.118Z,95484
2018-01-07T05:12:57.842Z,95486
2018-01-07T05:15:26.797Z,95469
2018-01-07T05:17:55.764Z,95469
2018-01-07T05:20:24.723Z,95470
2018-01-07T05:22:53.713Z,95480
2018-01-07T05:25:23.437Z,95475
2018-01-07T05:27:52.394Z,95485
2018-01-07T05:30:22.161Z,95479
2018-01-07T05:32:51.071Z,95475
2018-01-07T05:35:20.035Z,95491
2018-01-07T05:37:48.990Z,95496
2018-01-07T05:40:18.734Z,95490
2018-01-07T05:42:47.690Z,95493
2018-01-07T05:45:16.646Z,95511
2018-01-07T05:47:45.606Z,95493
2018-01-07T05:50:14.566Z,95504
2018-01-07T05:52:44.294Z,95503
2018-01-07T05:55:13.255Z,95500
2018-01-07T05:57:42.982Z,95511
2018-01-07T06:00:11.934Z,95527
2018-01-07T06:02:40.895Z,95527
2018-01-07T06:05:09.851Z,95532
2018-01-07T06:07:39.586Z,95530
2018-01-07T06:10:08.554Z,95537
2018-01-07T06:12:38.270Z,95537
2018-01-07T06:15:07.238Z,95543
2018-01-07T06:17:36.188Z,95548
2018-01-07T06:20:05.154Z,95544
2018-01-07T06:22:34.860Z,95547
2018-01-07T06:25:03.815Z,95544
2018-01-07T06:27:32.768Z,95549
2018-01-07T06:30:01.728Z,95551
2018-01-07T06:32:31.441Z,95545
2018-01-07T06:35:01.187Z,95546
2018-01-07T06:37:30.147Z,95551
2018-01-07T06:39:59.095Z,95548
2018-01-07T06:42:28.058Z,95551
2018-01-07T06:44:57.010Z,95559
2018-01-07T06:47:25.974Z,95560
2018-01-07T06:49:54.937Z,95562
2018-01-07T06:52:23.903Z,95573
2018-01-07T06:54:52.870Z,95567
2018-01-07T06:57:22.610Z,95573
2018-01-07T06:59:51.566Z,95569
2018-01-07T07:02:21.296Z,95574
2018-01-07T07:04:51.018Z,95572
2018-01-07T07:07:19.970Z,95571
2018-01-07T07:09:48.930Z,95567
2018-01-07T07:12:17.896Z,95571
2018-01-07T07:14:46.854Z,95570
2018-01-07T07:17:15.803Z,95578
2018-01-07T07:19:44.779Z,95590
2018-01-07T07:22:13.727Z,95599
2018-01-07T07:24:42.690Z,95610
2018-01-07T07:27:11.648Z,95612
2018-01-07T07:29:40.614Z,95605
2018-01-07T07:32:09.570Z,95613
2018-01-07T07:34:38.535Z,95611
2018-01-07T07:37:07.499Z,95620
2018-01-07T07:39:37.214Z,95626
2018-01-07T07:42:06.171Z,95616
2018-01-07T07:44:35.131Z,95628
2018-01-07T07:47:04.119Z,95626
2018-01-07T07:49:33.079Z,95641
2018-01-07T07:52:02.804Z,95641
2018-01-07T07:54:31.767Z,95637
2018-01-07T07:57:01.491Z,95653
2018-01-07T07:59:30.450Z,95655
2018-01-07T08:01:59.393Z,95658
2018-01-07T08:04:28.375Z,95656
2018-01-07T08:06:57.326Z,95669
2018-01-07T08:09:26.296Z,95657
2018-01-07T08:11:55.267Z,95666
2018-01-07T08:14:24.214Z,95669
2018-01-07T08:16:53.178Z,95687
2018-01-07T08:19:22.134Z,95688
2018-01-07T08:21:51.082Z,95692
2018-01-07T08:24:20.033Z,95695
2018-01-07T08:26:48.998Z,95710
2018-01-07T08:29:18.715Z,95716
2018-01-07T08:31:47.670Z,95710
2018-01-07T08:34:16.626Z,95707
2018-01-07T08:36:45.583Z,95720
2018-01-07T08:39:15.322Z,95733
2018-01-07T08:41:44.293Z,95730
2018-01-07T08:44:15.023Z,95729
2018-01-07T08:46:45.008Z,95728
2018-01-07T08:49:15.242Z,95735
2018-01-07T08:51:44.670Z,95740
2018-01-07T08:54:14.746Z,95742
2018-01-07T08:56:43.771Z,95756
2018-01-07T08:59:13.482Z,95745
2018-01-07T09:01:42.658Z,95744
2018-01-07T09:04:12.371Z,95755
2018-01-07T09:06:42.098Z,95769
2018-01-07T09:09:11.097Z,95765
2018-01-07T09:11:40.066Z,95773
2018-01-07T09:14:08.996Z,95765
2018-01-07T09:16:38.048Z,95780
2018-01-07T09:19:07.010Z,95782
2018-01-07T09:21:35.959Z,95780
2018-01-07T09:24:04.930Z,95779
2018-01-07T09:26:34.667Z,95785
2018-01-07T09:29:03.626Z,95794
2018-01-07T09:31:33.365Z,95806
2018-01-07T09:34:02.361Z,95813
2018-01-07T09:36:31.334Z,95821
2018-01-07T09:39:01.042Z,95829
2018-01-07T09:41:30.010Z,95835
2018-01-07T09:46:25.743Z,95828
2018-01-07T09:48:54.702Z,95822
2018-01-07T09:51:23.672Z,95826
2018-01-07T09:53:52.657Z,95836
2018-01-07T09:56:21.647Z,95832
2018-01-07T09:58:50.594Z,95828
2018-01-07T10:01:19.575Z,95820
2018-01-07T10:03:48.534Z,95828
2018-01-07T10:06:17.482Z,95826
2018-01-07T10:08:46.447Z,95822
2018-01-07T10:11:15.408Z,95817
2018-01-07T10:13:44.371Z,95820
2018-01-07T10:16:13.324Z,95825
2018-01-07T10:18:42.272Z,95820
2018-01-07T10:21:11.226Z,95823
2018-01-07T10:23:40.177Z,95828
2018-01-07T10:26:09.127Z,95831
2018-01-07T10:28:38.871Z,95835
2018-01-07T10:31:07.827Z,95821
2018-01-07T10:33:36.779Z,95830
2018-01-07T10:36:05.740Z,95839
2018-01-07T10:38:34.686Z,95826
2018-01-07T10:41:03.647Z,95818
2018-01-07T10:43:32.599Z,95819
2018-01-07T10:46:01.560Z,95821
2018-01-07T10:48:30.510Z,95812
2018-01-07T10:50:59.479Z,95811
2018-01-07T10:53:29.212Z,95813
2018-01-07T10:55:58.164Z,95811
2018-01-07T10:58:27.126Z,95807
2018-01-07T11:01:01.527Z,95808
2018-01-07T11:03:30.490Z,95805
2018-01-07T11:05:59.446Z,95809
2018-01-07T11:08:28.414Z,95811
2018-01-07T11:10:57.386Z,95793
2018-01-07T11:13:26.342Z,95805
2018-01-07T11:15:56.065Z,95797
2018-01-07T11:18:25.803Z,95796
2018-01-07T11:20:54.783Z,95796
2018-01-07T11:23:23.727Z,95728
2018-01-07T11:25:53.598Z,95792
2018-01-07T11:28:22.562Z,95796
2018-01-07T11:30:52.313Z,95801
2018-01-07T11:33:21.251Z,95795
2018-01-07T11:35:50.994Z,95708
2018-01-07T11:38:19.992Z,95789
2018-01-07T11:40:48.969Z,95793
2018-01-07T11:43:18.707Z,95793
2018-01-07T11:45:48.610Z,95793
2018-01-07T11:48:19.542Z,95786
2018-01-07T11:50:48.498Z,95786
2018-01-07T11:53:18.246Z,95795
2018-01-07T11:55:47.198Z,95784
2018-01-07T11:58:18.179Z,95782
2018-01-07T12:00:48.903Z,95790
2018-01-07T12:03:19.555Z,95787
2018-01-07T12:05:48.509Z,95785
2018-01-07T12:08:20.202Z,95795
2018-01-07T12:10:49.154Z,95803
2018-01-07T12:13:18.854Z,95792
2018-01-07T12:15:47.806Z,95796
2018-01-07T12:18:16.767Z,95783
2018-01-07T12:20:45.726Z,95792
2018-01-07T12:23:14.763Z,95791
2018-01-07T12:25:43.734Z,95786
2018-01-07T12:28:34.743Z,95788
2018-01-07T12:31:03.707Z,95805
2018-01-07T12:33:32.670Z,95802
2018-01-07T12:36:09.919Z,95796
2018-01-07T12:38:38.871Z,95786
2018-01-07T12:41:07.831Z,95784
2018-01-07T12:43:36.807Z,95780
2018-01-07T12:46:05.756Z,95778
2018-01-07T12:48:34.720Z,95774
2018-01-07T12:51:03.776Z,95774
2018-01-07T12:53:33.092Z,95780
2018-01-07T12:56:03.816Z,95774
2018-01-07T12:58:32.874Z,95767
2018-01-07T13:01:02.598Z,95778
2018-01-07T13:03:32.339Z,95771
2018-01-07T13:06:01.294Z,95767
2018-01-07T13:08:31.026Z,95765
2018-01-07T13:11:00.096Z,95768
2018-01-07T13:13:29.828Z,95771
2018-01-07T13:16:03.655Z,95769
2018-01-07T13:18:40.790Z,95770
2018-01-07T13:21:15.470Z,95777
2018-01-07T13:23:44.431Z,95778
2018-01-07T13:26:13.439Z,95786
2018-01-07T13:28:46.057Z,95794
2018-01-07T13:31:16.139Z,95793
2018-01-07T13:33:45.152Z,95784
2018-01-07T13:36:16.086Z,95784
2018-01-07T13:38:47.006Z,95790
2018-01-07T13:41:27.350Z,95780
2018-01-07T13:43:56.315Z,95788
2018-01-07T13:46:25.273Z,95806
2018-01-07T13:48:54.379Z,95809
2018-01-07T13:51:23.335Z,95802
2018-01-07T13:53:52.287Z,95814
2018-01-07T13:56:21.273Z,95823
2018-01-07T13:58:50.211Z,95818
2018-01-07T14:01:30.842Z,95828
2018-01-07T14:04:00.603Z,95827
2018-01-07T14:06:29.563Z,95827
2018-01-07T14:08:58.511Z,95843
2018-01-07T14:11:31.886Z,95844
2018-01-07T14:14:00.844Z,95843
2018-01-07T14:16:29.809Z,95851
2018-01-07T14:18:59.675Z,95850
2018-01-07T14:21:28.639Z,95851
2018-01-07T14:23:57.595Z,95858
2018-01-07T14:26:29.730Z,95852
2018-01-07T14:28:59.635Z,95857
2018-01-07T14:31:28.599Z,95868
2018-01-07T14:33:58.714Z,95858
2018-01-07T14:36:27.930Z,95849
2018-01-07T14:38:56.898Z,95847
2018-01-07T14:41:27.110Z,95838
2018-01-07T14:43:56.835Z,95846
2018-01-07T14:46:41.650Z,95850
2018-01-07T14:49:10.615Z,95851
2018-01-07T14:51:39.602Z,95861
2018-01-07T14:54:08.549Z,95858
2018-01-07T14:56:42.157Z,95854
2018-01-07T14:59:13.067Z,95857
2018-01-07T15:01:42.111Z,95864
2018-01-07T15:04:11.111Z,95868
2018-01-07T15:06:42.133Z,95876
2018-01-07T15:09:11.280Z,95875
2018-01-07T15:11:40.218Z,95865
2018-01-07T15:14:12.038Z,95874
2018-01-07T15:16:41.025Z,95879
2018-01-07T15:19:23.339Z,95884
2018-01-07T15:21:53.151Z,95882
2018-01-07T15:24:22.137Z,95881
2018-01-07T15:26:51.253Z,95871
2018-01-07T15:29:20.245Z,95859
2018-01-07T15:31:49.219Z,95878
2018-01-07T15:34:20.127Z,95873
2018-01-07T15:36:49.103Z,95858
2018-01-07T15:39:18.875Z,95873
2018-01-07T15:41:53.104Z,95863
2018-01-07T15:44:24.097Z,95623
2018-01-07T15:46:53.067Z,95871
2018-01-07T15:49:23.028Z,95872
2018-01-07T15:51:59.967Z,95879
2018-01-07T15:54:39.208Z,95873
2018-01-07T15:57:13.525Z,95881
2018-01-07T15:59:42.513Z,95881
2018-01-07T16:02:11.488Z,95893
2018-01-07T16:04:41.226Z,95893
2018-01-07T16:07:14.613Z,95898
2018-01-07T16:09:43.607Z,95904
2018-01-07T16:12:12.622Z,95909
2018-01-07T16:14:49.275Z,95902
2018-01-07T16:17:18.265Z,95900
2018-01-07T16:19:47.241Z,95901
2018-01-07T16:22:23.287Z,95905
2018-01-07T16:24:53.020Z,95915
2018-01-07T16:27:22.003Z,95914
2018-01-07T16:30:01.759Z,95918
2018-01-07T16:32:31.687Z,95915
2018-01-07T16:35:00.664Z,95925
2018-01-07T16:37:29.630Z,95928
2018-01-07T16:39:59.376Z,95951
2018-01-07T16:42:30.478Z,95956
2018-01-07T16:45:03.322Z,95966
2018-01-07T16:47:32.419Z,95967
2018-01-07T16:50:01.451Z,95962
2018-01-07T16:52:30.398Z,95955
2018-01-07T16:55:00.310Z,95951
2018-01-07T16:57:29.274Z,95946
2018-01-07T16:59:58.241Z,95948
2018-01-07T17:02:27.997Z,95956
2018-01-07T17:04:56.981Z,95950
2018-01-07T17:07:25.983Z,95958
2018-01-07T17:09:55.136Z,95959
2018-01-07T17:12:27.725Z,95964
2018-01-07T17:14:56.731Z,95950
2018-01-07T17:17:25.895Z,95962
2018-01-07T17:19:55.614Z,95974
2018-01-07T17:22:25.354Z,95983
2018-01-07T17:24:54.315Z,95974
2018-01-07T17:27:24.931Z,95974
2018-01-07T17:29:53.872Z,95975
2018-01-07T17:32:22.836Z,95979
2018-01-07T17:34:52.558Z,95974
2018-01-07T17:37:21.542Z,95976
2018-01-07T17:39:52.491Z,95979
2018-01-07T17:42:21.479Z,95977
2018-01-07T17:44:50.460Z,95970
2018-01-07T17:47:20.166Z,95985
2018-01-07T17:49:49.895Z,95979
2018-01-07T17:52:18.855Z,95974
2018-01-07T17:54:48.715Z,95976
2018-01-07T17:57:17.676Z,95972
2018-01-07T17:59:47.413Z,95966
2018-01-07T18:02:16.376Z,95972
2018-01-07T18:04:46.163Z,95977
2018-01-07T18:07:16.029Z,95979
2018-01-07T18:09:51.975Z,95978
2018-01-07T18:12:21.171Z,95978
2018-01-07T18:14:51.027Z,95990
2018-01-07T18:17:19.966Z,95982
2018-01-07T18:19:48.926Z,95983
2018-01-07T18:22:17.896Z,96038
2018-01-07T18:24:46.874Z,95981
2018-01-07T18:27:15.824Z,95984
2018-01-07T18:29:44.771Z,95981
2018-01-07T18:32:13.747Z,95984
2018-01-07T18:34:42.698Z,95998
2018-01-07T18:37:12.447Z,95999
2018-01-07T18:39:41.410Z,95993
2018-01-07T18:42:13.231Z,95996
2018-01-07T18:44:42.252Z,96014
2018-01-07T18:47:12.057Z,95997
2018-01-07T18:49:41.068Z,95996
2018-01-07T18:52:10.774Z,95997
2018-01-07T18:54:40.506Z,95992
2018-01-07T18:57:10.435Z,95998
2018-01-07T18:59:39.405Z,96006
2018-01-07T19:02:08.366Z,96009
2018-01-07T19:04:37.335Z,96007
2018-01-07T19:07:07.206Z,96004
2018-01-07T19:09:36.221Z,95997
2018-01-07T19:12:05.175Z,96002
2018-01-07T19:14:34.894Z,96001
2018-01-07T19:17:06.590Z,96004
2018-01-07T19:19:35.627Z,96009
2018-01-07T19:22:06.395Z,96016
2018-01-07T19:24:35.439Z,96018
2018-01-07T19:27:04.399Z,96019
2018-01-07T19:29:33.355Z,96011
2018-01-07T19:32:02.336Z,96023
2018-01-07T19:34:31.298Z,96007
2018-01-07T19:37:00.248Z,96020
2018-01-07T19:39:29.216Z,96017
2018-01-07T19:41:58.935Z,96020
2018-01-07T19:44:27.899Z,96011
2018-01-07T19:46:57.848Z,96019
2018-01-07T19:49:26.806Z,96020
2018-01-07T19:51:55.944Z,96012
2018-01-07T19:54:24.994Z,96018
2018-01-07T19:56:53.946Z,96021
2018-01-07T19:59:22.910Z,96027
2018-01-07T20:01:51.904Z,96028
2018-01-07T20:04:22.857Z,96023
2018-01-07T20:06:51.810Z,96022
2018-01-07T20:09:21.527Z,96021
2018-01-07T20:11:50.543Z,96026
2018-01-07T20:14:19.508Z,96030
2018-01-07T20:16:50.329Z,96018
2018-01-07T20:19:19.274Z,96019
2018-01-07T20:21:49.221Z,96008
2018-01-07T20:24:18.174Z,96013
2018-01-07T20:26:47.143Z,96021
2018-01-07T20:29:17.731Z,96019
2018-01-07T20:31:46.696Z,96027
2018-01-07T20:34:15.849Z,96034
2018-01-07T20:36:44.911Z,96030
2018-01-07T20:39:14.049Z,96034
2018-01-07T20:41:43.774Z,96029
2018-01-07T20:44:13.628Z,96030
2018-01-07T20:46:42.881Z,96020
2018-01-07T20:49:12.868Z,96019
2018-01-07T20:51:42.158Z,96020
2018-01-07T20:54:12.141Z,96018
2018-01-07T20:56:42.152Z,96013
2018-01-07T20:59:11.110Z,96016
2018-01-07T21:01:40.863Z,96026
2018-01-07T21:04:10.382Z,96029
2018-01-07T21:06:39.358Z,96020
2018-01-07T21:09:08.316Z,96032
2018-01-07T21:11:37.283Z,96026
2018-01-07T21:14:06.235Z,95947
2018-01-07T21:16:36.153Z,96036
2018-01-07T21:19:05.831Z,96036
2018-01-07T21:21:34.788Z,96032
2018-01-07T21:24:03.944Z,96028
2018-01-07T21:26:34.867Z,96027
2018-01-07T21:29:03.973Z,96034
2018-01-07T21:31:32.967Z,96038
2018-01-07T21:34:02.001Z,96035
2018-01-07T21:36:32.038Z,96034
2018-01-07T21:39:00.985Z,96035
2018-01-07T21:41:29.939Z,96035
2018-01-07T21:43:59.872Z,96040
2018-01-07T21:46:29.874Z,96031
2018-01-07T21:48:58.850Z,96042
2018-01-07T21:51:28.589Z,96043
2018-01-07T21:53:57.559Z,96048
2018-01-07T21:56:27.282Z,96053
2018-01-07T21:58:56.518Z,96046
2018-01-07T22:01:43.389Z,96047
2018-01-07T22:04:13.306Z,96042
2018-01-07T22:09:50.405Z,96043
2018-01-07T22:12:20.250Z,96043
2018-01-07T22:14:50.017Z,96052
2018-01-07T22:17:19.746Z,96043
2018-01-07T22:19:48.702Z,96045
2018-01-07T22:22:18.419Z,96056
2018-01-07T22:24:48.147Z,96044
2018-01-07T22:27:17.948Z,96051
2018-01-07T22:29:47.674Z,96047
2018-01-07T22:32:16.628Z,96047
2018-01-07T22:34:45.593Z,96046
2018-01-07T22:37:15.533Z,96044
2018-01-07T22:39:44.507Z,96037
2018-01-07T22:42:13.464Z,96027
2018-01-07T22:44:42.423Z,96039
2018-01-07T22:47:12.152Z,96036
2018-01-07T22:49:41.108Z,96034
2018-01-07T22:52:10.060Z,96044
2018-01-07T22:54:39.024Z,96048
2018-01-07T22:57:08.002Z,96039
2018-01-07T22:59:37.727Z,96042
2018-01-07T23:02:06.691Z,96046
2018-01-07T23:04:35.669Z,96045
2018-01-07T23:07:04.627Z,96047
2018-01-07T23:09:33.630Z,96055
2018-01-07T23:12:02.587Z,96048
2018-01-07T23:14:31.571Z,96049
2018-01-07T23:17:01.297Z,96049
2018-01-07T23:19:30.250Z,96047
2018-01-07T23:21:59.206Z,96036
2018-01-07T23:24:30.128Z,96035
2018-01-07T23:26:59.075Z,96038
2018-01-07T23:29:28.038Z,96042
2018-01-07T23:31:56.997Z,96050
2018-01-07T23:34:25.958Z,96045
2018-01-07T23:36:55.704Z,96040
2018-01-07T23:39:24.658Z,96045
2018-01-07T23:41:53.609Z,96035
2018-01-07T23:44:22.600Z,96032
2018-01-07T23:46:51.574Z,96034
2018-01-07T23:49:20.569Z,96035
2018-01-07T23:51:49.556Z,96028
2018-01-07T23:54:18.588Z,96028
2018-01-07T23:56:47.601Z,96038
2018-01-07T23:59:16.591Z,96036
